createdAt,value
2022-12-04T00:02:15.535Z,101775.29
2022-12-04T00:04:47.577Z,101776.84
2022-12-04T00:07:19.587Z,101784.55
2022-12-04T00:09:51.314Z,101780.27
2022-12-04T00:12:23.072Z,101782.70
2022-12-04T00:17:49.501Z,101776.94
2022-12-04T00:20:23.294Z,101776.92
2022-12-04T00:22:54.978Z,101773.73
2022-12-04T00:25:26.729Z,101778.60
2022-12-04T00:27:58.500Z,101787.23
2022-12-04T00:30:30.764Z,101785.96
2022-12-04T00:33:02.323Z,101784.41
2022-12-04T00:35:34.181Z,101778.79
2022-12-04T00:38:05.983Z,101773.88
2022-12-04T00:40:38.004Z,101775.15
2022-12-04T00:43:09.770Z,101772.53
2022-12-04T00:45:41.552Z,101769.17
2022-12-04T00:48:13.253Z,101769.70
2022-12-04T00:50:45.451Z,101776.77
2022-12-04T00:53:17.279Z,101779.05
2022-12-04T00:55:49.189Z,101772.77
2022-12-04T00:58:20.825Z,101771.11
2022-12-04T01:00:52.647Z,101774.69
2022-12-04T01:03:24.455Z,101778.09
2022-12-04T01:05:56.028Z,101778.42
2022-12-04T01:08:27.994Z,101786.25
2022-12-04T01:10:59.928Z,101794.38
2022-12-04T01:13:31.849Z,101794.17
2022-12-04T01:16:03.666Z,101788.52
2022-12-04T01:18:35.594Z,101784.41
2022-12-04T01:21:07.686Z,101777.91
2022-12-04T01:23:39.331Z,101781.98
2022-12-04T01:26:11.508Z,101780.91
2022-12-04T01:28:43.631Z,101780.17
2022-12-04T01:31:18.052Z,101783.47
2022-12-04T01:33:50.786Z,101778.49
2022-12-04T01:36:24.343Z,101775.32
2022-12-04T01:38:57.190Z,101773.26
2022-12-04T01:41:30.851Z,101776.42
2022-12-04T01:44:14.602Z,101768.63
2022-12-04T01:46:52.284Z,101768.12
2022-12-04T01:49:26.413Z,101769.88
2022-12-04T01:52:02.618Z,101766.52
2022-12-04T01:54:37.371Z,101768.04
2022-12-04T01:57:12.967Z,101769.61
2022-12-04T01:59:49.218Z,101771.21
2022-12-04T02:02:22.814Z,101770.33
2022-12-04T02:04:55.164Z,101770.34
2022-12-04T02:07:27.117Z,101771.91
2022-12-04T02:10:03.862Z,101773.70
2022-12-04T02:12:38.255Z,101767.64
2022-12-04T02:15:15.975Z,101765.86
2022-12-04T02:17:52.722Z,101769.92
2022-12-04T02:20:32.704Z,101767.11
2022-12-04T02:23:27.228Z,101761.46
2022-12-04T02:26:06.426Z,101763.02
2022-12-04T02:28:44.544Z,101766.08
2022-12-04T02:31:20.006Z,101764.61
2022-12-04T02:33:55.704Z,101766.03
2022-12-04T02:36:30.629Z,101768.48
2022-12-04T02:39:08.662Z,101763.80
2022-12-04T02:41:43.194Z,101766.70
2022-12-04T02:44:17.794Z,101767.55
2022-12-04T02:46:52.538Z,101764.54
2022-12-04T02:49:26.528Z,101764.33
2022-12-04T02:51:59.622Z,101764.00
2022-12-04T02:54:37.080Z,101763.11
2022-12-04T02:57:12.601Z,101767.94
2022-12-04T02:59:46.199Z,101767.67
2022-12-04T03:02:26.549Z,101766.77
2022-12-04T03:05:00.374Z,101760.89
2022-12-04T03:07:36.773Z,101758.39
2022-12-04T03:10:13.444Z,101757.64
2022-12-04T03:12:48.216Z,101753.69
2022-12-04T03:15:23.048Z,101756.16
2022-12-04T03:17:56.971Z,101759.15
2022-12-04T03:20:28.808Z,101756.36
2022-12-04T03:23:04.270Z,101751.79
2022-12-04T03:25:39.651Z,101749.66
2022-12-04T03:28:17.922Z,101752.83
2022-12-04T03:30:58.686Z,101747.98
2022-12-04T03:33:35.373Z,101745.49
2022-12-04T03:36:11.407Z,101744.61
2022-12-04T03:38:48.191Z,101740.17
2022-12-04T03:41:25.995Z,101741.16
2022-12-04T03:44:00.321Z,101744.98
2022-12-04T03:46:35.460Z,101746.46
2022-12-04T03:49:13.087Z,101739.39
2022-12-04T03:51:48.623Z,101738.84
2022-12-04T03:54:22.984Z,101735.13
2022-12-04T03:56:56.586Z,101734.05
2022-12-04T03:59:31.671Z,101732.23
2022-12-04T04:02:05.058Z,101732.16
2022-12-04T04:04:38.018Z,101732.65
2022-12-04T04:07:13.742Z,101731.93
2022-12-04T04:09:46.926Z,101729.39
2022-12-04T04:12:23.134Z,101726.42
2022-12-04T04:15:16.536Z,101735.48
2022-12-04T04:18:07.585Z,101736.66
2022-12-04T04:21:00.296Z,101742.05
2022-12-04T04:23:52.270Z,101743.10
2022-12-04T04:26:25.208Z,101740.82
2022-12-04T04:28:57.009Z,101735.18
2022-12-04T04:31:33.662Z,101730.52
2022-12-04T04:34:11.036Z,101728.45
2022-12-04T04:36:50.362Z,101730.06
2022-12-04T04:39:29.064Z,101726.73
2022-12-04T04:42:02.825Z,101722.73
2022-12-04T04:44:39.055Z,101724.17
2022-12-04T04:47:15.539Z,101722.11
2022-12-04T04:49:48.797Z,101728.17
2022-12-04T04:52:22.965Z,101727.66
2022-12-04T04:54:55.149Z,101730.20
2022-12-04T04:57:31.613Z,101732.02
2022-12-04T05:00:05.588Z,101729.31
2022-12-04T05:02:37.438Z,101730.14
2022-12-04T05:05:10.635Z,101737.11
2022-12-04T05:07:42.421Z,101735.52
2022-12-04T05:10:14.682Z,101738.39
2022-12-04T05:12:46.550Z,101740.98
2022-12-04T05:15:18.599Z,101738.27
2022-12-04T05:17:50.121Z,101743.89
2022-12-04T05:20:22.043Z,101739.44
2022-12-04T05:22:53.567Z,101739.62
2022-12-04T05:25:26.074Z,101734.09
2022-12-04T05:27:58.322Z,101727.89
2022-12-04T05:30:30.618Z,101731.05
2022-12-04T05:33:02.453Z,101736.50
2022-12-04T05:35:34.189Z,101748.12
2022-12-04T05:38:06.128Z,101755.61
2022-12-04T05:40:38.847Z,101756.19
2022-12-04T05:43:10.487Z,101761.30
2022-12-04T05:45:42.314Z,101761.45
2022-12-04T05:48:13.975Z,101763.16
2022-12-04T05:50:45.784Z,101761.39
2022-12-04T05:53:17.837Z,101764.45
2022-12-04T05:55:56.822Z,101756.35
2022-12-04T05:58:29.735Z,101745.44
2022-12-04T06:01:01.579Z,101740.52
2022-12-04T06:03:33.201Z,101738.73
2022-12-04T06:06:05.749Z,101742.46
2022-12-04T06:08:37.538Z,101752.55
2022-12-04T06:11:14.614Z,101758.21
2022-12-04T06:13:47.269Z,101764.59
2022-12-04T06:16:21.028Z,101767.91
2022-12-04T06:18:54.245Z,101777.79
2022-12-04T06:21:27.764Z,101784.96
2022-12-04T06:24:13.605Z,101786.63
2022-12-04T06:29:48.780Z,101777.92
2022-12-04T06:32:22.224Z,101774.23
2022-12-04T06:35:00.830Z,101774.08
2022-12-04T06:37:33.279Z,101773.40
2022-12-04T06:40:06.338Z,101769.39
2022-12-04T06:42:37.971Z,101778.80
2022-12-04T06:45:12.143Z,101789.88
2022-12-04T06:47:43.678Z,101781.04
2022-12-04T06:50:15.366Z,101793.35
2022-12-04T06:52:46.976Z,101797.52
2022-12-04T06:55:18.857Z,101805.88
2022-12-04T06:57:50.976Z,101805.33
2022-12-04T07:00:23.060Z,101795.45
2022-12-04T07:02:54.832Z,101796.17
2022-12-04T07:05:26.703Z,101794.89
2022-12-04T07:07:58.610Z,101792.95
2022-12-04T07:10:30.392Z,101791.29
2022-12-04T07:13:02.108Z,101787.17
2022-12-04T07:15:35.321Z,101785.02
2022-12-04T07:18:07.628Z,101783.05
2022-12-04T07:20:41.954Z,101789.05
2022-12-04T07:23:13.777Z,101784.23
2022-12-04T07:25:45.314Z,101784.67
2022-12-04T07:28:17.104Z,101787.11
2022-12-04T07:30:48.688Z,101789.52
2022-12-04T07:33:20.319Z,101788.75
2022-12-04T07:35:59.082Z,101789.17
2022-12-04T07:38:31.427Z,101790.42
2022-12-04T07:41:04.110Z,101793.84
2022-12-04T07:43:36.284Z,101794.67
2022-12-04T07:46:11.286Z,101796.95
2022-12-04T07:48:43.360Z,101800.41
2022-12-04T07:51:16.658Z,101795.55
2022-12-04T07:53:48.760Z,101801.20
2022-12-04T07:56:20.905Z,101810.17
2022-12-04T07:58:52.602Z,101812.73
2022-12-04T08:01:25.403Z,101807.90
2022-12-04T08:03:58.710Z,101798.60
2022-12-04T08:06:31.646Z,101803.59
2022-12-04T08:09:09.295Z,101809.41
2022-12-04T08:11:42.546Z,101812.98
2022-12-04T08:14:15.032Z,101818.80
2022-12-04T08:16:51.136Z,101816.23
2022-12-04T08:19:24.967Z,101813.77
2022-12-04T08:21:58.056Z,101812.44
2022-12-04T08:24:34.942Z,101812.06
2022-12-04T08:27:08.503Z,101812.88
2022-12-04T08:29:40.590Z,101814.30
2022-12-04T08:32:12.229Z,101815.17
2022-12-04T08:34:43.982Z,101822.94
2022-12-04T08:37:15.558Z,101818.48
2022-12-04T08:39:47.381Z,101821.98
2022-12-04T08:42:19.526Z,101816.09
2022-12-04T08:44:51.230Z,101813.02
2022-12-04T08:47:22.887Z,101811.52
2022-12-04T08:49:54.861Z,101807.06
2022-12-04T08:52:26.819Z,101804.59
2022-12-04T08:54:58.688Z,101802.20
2022-12-04T08:57:30.851Z,101803.09
2022-12-04T09:00:02.570Z,101806.05
2022-12-04T09:02:42.891Z,101803.94
2022-12-04T09:05:17.995Z,101802.52
2022-12-04T09:07:49.696Z,101800.08
2022-12-04T09:10:21.671Z,101799.86
2022-12-04T09:12:58.843Z,101799.71
2022-12-04T09:15:31.952Z,101797.92
2022-12-04T09:18:03.555Z,101791.45
2022-12-04T09:20:35.450Z,101792.98
2022-12-04T09:23:07.243Z,101791.55
2022-12-04T09:25:39.540Z,101795.89
2022-12-04T09:28:11.093Z,101800.19
2022-12-04T09:30:42.892Z,101802.15
2022-12-04T09:33:14.471Z,101796.27
2022-12-04T09:35:46.340Z,101795.49
2022-12-04T09:38:18.224Z,101787.66
2022-12-04T09:40:54.004Z,101793.48
2022-12-04T09:43:32.776Z,101789.55
2022-12-04T09:46:09.519Z,101783.02
2022-12-04T09:48:43.693Z,101779.16
2022-12-04T09:51:19.202Z,101778.44
2022-12-04T09:53:54.503Z,101780.05
2022-12-04T09:56:29.042Z,101779.98
2022-12-04T09:59:06.808Z,101778.69
2022-12-04T10:01:45.477Z,101773.95
2022-12-04T10:04:19.784Z,101770.46
2022-12-04T10:06:57.780Z,101770.37
2022-12-04T10:09:34.402Z,101766.03
2022-12-04T10:12:13.607Z,101765.14
2022-12-04T10:15:02.167Z,101767.94
2022-12-04T10:17:51.787Z,101769.73
2022-12-04T10:20:40.630Z,101759.05
2022-12-04T10:23:17.372Z,101760.33
2022-12-04T10:25:49.618Z,101755.05
2022-12-04T10:28:28.621Z,101759.86
2022-12-04T10:31:03.245Z,101754.78
2022-12-04T10:33:39.441Z,101754.37
2022-12-04T10:36:15.826Z,101751.30
2022-12-04T10:38:53.800Z,101751.02
2022-12-04T10:41:28.468Z,101750.14
2022-12-04T10:44:00.236Z,101746.33
2022-12-04T10:46:34.522Z,101745.23
2022-12-04T10:49:11.343Z,101745.89
2022-12-04T10:51:44.648Z,101742.13
2022-12-04T10:54:23.305Z,101732.39
2022-12-04T10:56:58.040Z,101733.35
2022-12-04T10:59:30.087Z,101732.73
2022-12-04T11:02:13.748Z,101726.52
2022-12-04T11:04:51.847Z,101724.04
2022-12-04T11:07:27.689Z,101722.50
2022-12-04T11:10:03.289Z,101718.09
2022-12-04T11:12:35.213Z,101716.95
2022-12-04T11:15:16.211Z,101710.42
2022-12-04T11:17:47.819Z,101709.79
2022-12-04T11:20:23.221Z,101708.86
2022-12-04T11:22:57.152Z,101712.44
2022-12-04T11:25:35.417Z,101712.23
2022-12-04T11:28:07.557Z,101714.08
2022-12-04T11:30:40.855Z,101711.77
2022-12-04T11:33:22.920Z,101712.64
2022-12-04T11:35:55.806Z,101713.19
2022-12-04T11:38:29.536Z,101716.30
2022-12-04T11:41:01.531Z,101715.88
2022-12-04T11:43:34.009Z,101711.60
2022-12-04T11:46:07.970Z,101711.73
2022-12-04T11:48:47.050Z,101710.54
2022-12-04T11:51:25.691Z,101713.00
2022-12-04T11:54:03.300Z,101718.23
2022-12-04T11:56:36.974Z,101707.91
2022-12-04T11:59:20.303Z,101701.05
2022-12-04T12:02:01.824Z,101702.77
2022-12-04T12:04:45.271Z,101706.22
2022-12-04T12:07:24.029Z,101704.68
2022-12-04T12:10:00.494Z,101703.75
2022-12-04T12:12:42.401Z,101708.39
2022-12-04T12:15:20.697Z,101715.20
2022-12-04T12:18:00.734Z,101714.54
2022-12-04T12:20:36.459Z,101710.94
2022-12-04T12:23:20.596Z,101705.38
2022-12-04T12:25:56.766Z,101700.40
2022-12-04T12:28:40.130Z,101695.57
2022-12-04T12:31:30.133Z,101691.66
2022-12-04T12:34:08.678Z,101685.21
2022-12-04T12:36:44.244Z,101683.67
2022-12-04T12:39:20.104Z,101677.70
2022-12-04T12:41:57.023Z,101674.84
2022-12-04T12:44:35.633Z,101676.67
2022-12-04T12:47:11.332Z,101680.80
2022-12-04T12:49:49.190Z,101675.19
2022-12-04T12:52:29.159Z,101680.73
2022-12-04T12:55:05.764Z,101685.63
2022-12-04T12:57:39.567Z,101682.02
2022-12-04T13:00:14.575Z,101681.30
2022-12-04T13:02:49.774Z,101683.13
2022-12-04T13:05:25.332Z,101686.92
2022-12-04T13:08:02.788Z,101693.37
2022-12-04T13:10:39.471Z,101693.59
2022-12-04T13:13:15.567Z,101690.28
2022-12-04T13:15:50.141Z,101688.09
2022-12-04T13:18:27.583Z,101678.69
2022-12-04T13:21:06.539Z,101684.42
2022-12-04T13:23:50.488Z,101687.73
2022-12-04T13:26:35.309Z,101685.55
2022-12-04T13:29:14.633Z,101688.10
2022-12-04T13:31:53.801Z,101689.39
2022-12-04T13:34:39.106Z,101687.56
2022-12-04T13:37:35.756Z,101690.37
2022-12-04T13:40:35.417Z,101691.27
2022-12-04T13:43:29.490Z,101689.64
2022-12-04T13:46:03.416Z,101692.64
2022-12-04T13:48:40.797Z,101699.95
2022-12-04T13:51:37.432Z,101703.73
2022-12-04T13:54:31.451Z,101704.64
2022-12-04T13:57:22.033Z,101710.61
2022-12-04T14:00:06.837Z,101714.03
2022-12-04T14:02:38.410Z,101713.19
2022-12-04T14:05:12.153Z,101715.35
2022-12-04T14:07:45.669Z,101714.15
2022-12-04T14:10:30.519Z,101719.30
2022-12-04T14:13:05.641Z,101715.97
2022-12-04T14:15:39.242Z,101719.02
2022-12-04T14:18:21.761Z,101716.35
2022-12-04T14:21:02.216Z,101721.78
2022-12-04T14:23:39.206Z,101721.06
2022-12-04T14:26:29.259Z,101720.47
2022-12-04T14:29:21.917Z,101730.47
2022-12-04T14:31:52.210Z,101734.31
2022-12-04T14:34:29.274Z,101738.54
2022-12-04T14:37:03.099Z,101735.65
2022-12-04T14:39:38.007Z,101733.19
2022-12-04T14:42:16.622Z,101731.13
2022-12-04T14:44:53.691Z,101736.60
2022-12-04T14:47:35.224Z,101734.34
2022-12-04T14:50:20.824Z,101733.52
2022-12-04T14:52:56.199Z,101736.56
2022-12-04T14:55:33.556Z,101728.27
2022-12-04T14:58:20.418Z,101739.77
2022-12-04T15:00:57.343Z,101732.96
2022-12-04T15:03:30.285Z,101737.96
2022-12-04T15:06:07.334Z,101738.13
2022-12-04T15:08:48.813Z,101730.56
2022-12-04T15:11:39.698Z,101730.84
2022-12-04T15:14:15.831Z,101726.45
2022-12-04T15:16:47.720Z,101732.73
2022-12-04T15:19:21.336Z,101737.21
2022-12-04T15:21:54.408Z,101744.66
2022-12-04T15:24:27.278Z,101745.27
2022-12-04T15:26:59.250Z,101745.42
2022-12-04T15:29:34.427Z,101746.11
2022-12-04T15:32:09.312Z,101743.39
2022-12-04T15:34:45.026Z,101738.61
2022-12-04T15:37:21.741Z,101742.83
2022-12-04T15:39:54.717Z,101743.60
2022-12-04T15:42:29.712Z,101743.84
2022-12-04T15:45:03.166Z,101743.43
2022-12-04T15:47:38.727Z,101735.76
2022-12-04T15:50:28.855Z,101738.18
2022-12-04T15:53:09.564Z,101735.96
2022-12-04T15:55:52.604Z,101734.77
2022-12-04T15:58:28.136Z,101726.41
2022-12-04T16:01:02.011Z,101722.16
2022-12-04T16:03:35.869Z,101724.42
2022-12-04T16:06:18.300Z,101727.11
2022-12-04T16:08:51.271Z,101725.35
2022-12-04T16:11:31.640Z,101722.07
2022-12-04T16:14:15.409Z,101725.33
2022-12-04T16:16:49.979Z,101724.97
2022-12-04T16:19:32.785Z,101728.73
2022-12-04T16:22:10.392Z,101722.27
2022-12-04T16:24:42.169Z,101721.55
2022-12-04T16:27:16.051Z,101722.67
2022-12-04T16:29:48.006Z,101721.45
2022-12-04T16:32:21.731Z,101720.45
2022-12-04T16:34:53.631Z,101722.20
2022-12-04T16:37:26.254Z,101717.59
2022-12-04T16:39:58.110Z,101716.19
2022-12-04T16:42:30.797Z,101722.23
2022-12-04T16:45:03.247Z,101720.83
2022-12-04T16:47:35.255Z,101726.20
2022-12-04T16:50:09.483Z,101720.91
2022-12-04T16:52:41.319Z,101718.05
2022-12-04T16:55:20.222Z,101719.61
2022-12-04T16:57:51.893Z,101716.80
2022-12-04T17:00:23.875Z,101714.15
2022-12-04T17:02:55.643Z,101714.30
2022-12-04T17:05:29.692Z,101715.48
2022-12-04T17:08:02.013Z,101711.80
2022-12-04T17:10:33.790Z,101717.66
2022-12-04T17:13:05.654Z,101714.02
2022-12-04T17:15:37.543Z,101717.83
2022-12-04T17:18:13.931Z,101720.00
2022-12-04T17:20:48.154Z,101713.49
2022-12-04T17:23:19.755Z,101710.40
2022-12-04T17:25:51.511Z,101713.80
2022-12-04T17:28:23.361Z,101714.73
2022-12-04T17:30:55.104Z,101712.62
2022-12-04T17:33:27.367Z,101712.52
2022-12-04T17:36:00.416Z,101705.13
2022-12-04T17:38:32.100Z,101700.45
2022-12-04T17:41:04.319Z,101691.30
2022-12-04T17:43:36.389Z,101696.29
2022-12-04T17:46:13.069Z,101694.27
2022-12-04T17:48:45.831Z,101691.79
2022-12-04T17:51:19.805Z,101689.69
2022-12-04T17:53:50.171Z,101688.58
2022-12-04T17:56:23.344Z,101686.09
2022-12-04T17:58:55.113Z,101687.60
2022-12-04T18:01:28.388Z,101681.86
2022-12-04T18:04:02.182Z,101683.89
2022-12-04T18:06:35.832Z,101682.77
2022-12-04T18:09:09.630Z,101685.84
2022-12-04T18:11:43.283Z,101684.48
2022-12-04T18:14:17.126Z,101680.43
2022-12-04T18:16:53.106Z,101678.61
2022-12-04T18:19:26.803Z,101672.00
2022-12-04T18:21:58.849Z,101688.32
2022-12-04T18:24:30.753Z,101692.91
2022-12-04T18:27:03.719Z,101691.71
2022-12-04T18:29:35.736Z,101690.21
2022-12-04T18:32:07.729Z,101692.45
2022-12-04T18:34:39.849Z,101695.21
2022-12-04T18:37:11.794Z,101691.98
2022-12-04T18:39:43.601Z,101696.36
2022-12-04T18:42:15.301Z,101700.54
2022-12-04T18:44:47.573Z,101703.67
2022-12-04T18:47:19.202Z,101706.40
2022-12-04T18:49:50.882Z,101702.48
2022-12-04T18:52:22.722Z,101706.87
2022-12-04T18:54:54.452Z,101708.67
2022-12-04T18:57:26.135Z,101710.94
2022-12-04T18:59:58.578Z,101706.15
2022-12-04T19:02:30.852Z,101711.00
2022-12-04T19:05:03.365Z,101714.09
2022-12-04T19:07:35.080Z,101711.40
2022-12-04T19:10:11.054Z,101705.87
2022-12-04T19:12:43.621Z,101704.27
2022-12-04T19:15:15.374Z,101709.86
2022-12-04T19:17:46.960Z,101709.03
2022-12-04T19:20:19.413Z,101712.39
2022-12-04T19:22:51.283Z,101718.55
2022-12-04T19:25:23.094Z,101718.54
2022-12-04T19:27:55.537Z,101708.44
2022-12-04T19:30:27.437Z,101703.59
2022-12-04T19:32:59.522Z,101701.74
2022-12-04T19:35:31.507Z,101701.67
2022-12-04T19:38:03.101Z,101697.95
2022-12-04T19:40:34.961Z,101691.46
2022-12-04T19:43:06.603Z,101687.59
2022-12-04T19:45:38.560Z,101680.73
2022-12-04T19:48:10.369Z,101677.83
2022-12-04T19:50:44.352Z,101678.63
2022-12-04T19:53:16.097Z,101677.61
2022-12-04T19:55:47.683Z,101676.26
2022-12-04T19:58:19.460Z,101679.84
2022-12-04T20:00:51.462Z,101690.43
2022-12-04T20:03:23.479Z,101692.27
2022-12-04T20:05:55.147Z,101697.39
2022-12-04T20:08:27.052Z,101702.83
2022-12-04T20:10:59.752Z,101712.88
2022-12-04T20:13:31.512Z,101722.92
2022-12-04T20:16:05.891Z,101734.89
2022-12-04T20:18:39.582Z,101728.00
2022-12-04T20:21:12.053Z,101729.21
2022-12-04T20:23:46.455Z,101734.17
2022-12-04T20:26:21.165Z,101734.59
2022-12-04T20:28:53.787Z,101734.58
2022-12-04T20:31:27.180Z,101741.02
2022-12-04T20:34:00.776Z,101751.14
2022-12-04T20:36:36.573Z,101759.23
2022-12-04T20:39:09.146Z,101758.39
2022-12-04T20:41:41.347Z,101746.15
2022-12-04T20:44:15.749Z,101739.41
2022-12-04T20:46:47.953Z,101743.29
2022-12-04T20:49:22.383Z,101740.45
2022-12-04T20:51:54.787Z,101737.63
2022-12-04T20:54:26.595Z,101736.59
2022-12-04T20:56:58.412Z,101735.81
2022-12-04T20:59:29.988Z,101733.16
2022-12-04T21:02:01.918Z,101729.13
2022-12-04T21:04:33.678Z,101725.74
2022-12-04T21:07:05.858Z,101719.27
2022-12-04T21:09:37.492Z,101709.50
2022-12-04T21:12:27.059Z,101710.15
2022-12-04T21:15:16.509Z,101707.27
2022-12-04T21:17:48.322Z,101704.23
2022-12-04T21:20:20.086Z,101698.27
2022-12-04T21:22:51.766Z,101695.65
2022-12-04T21:25:25.284Z,101692.36
2022-12-04T21:27:57.015Z,101693.73
2022-12-04T21:30:28.764Z,101692.84
2022-12-04T21:33:00.373Z,101698.33
2022-12-04T21:35:32.115Z,101703.93
2022-12-04T21:38:03.897Z,101703.89
2022-12-04T21:40:41.960Z,101702.63
2022-12-04T21:43:14.331Z,101699.71
2022-12-04T21:45:46.719Z,101694.19
2022-12-04T21:48:18.509Z,101690.46
2022-12-04T21:50:50.179Z,101691.05
2022-12-04T21:53:21.948Z,101697.75
2022-12-04T21:55:57.103Z,101700.64
2022-12-04T21:58:29.123Z,101700.95
2022-12-04T22:01:00.986Z,101698.33
2022-12-04T22:03:33.040Z,101695.31
2022-12-04T22:06:04.811Z,101689.27
2022-12-04T22:08:38.069Z,101691.44
2022-12-04T22:11:11.296Z,101689.00
2022-12-04T22:13:43.046Z,101683.98
2022-12-04T22:16:19.267Z,101687.02
2022-12-04T22:18:54.161Z,101685.60
2022-12-04T22:21:26.300Z,101683.99
2022-12-04T22:23:59.689Z,101685.77
2022-12-04T22:26:32.432Z,101687.02
2022-12-04T22:29:20.825Z,101680.86
2022-12-04T22:31:56.341Z,101675.78
2022-12-04T22:34:28.180Z,101673.52
2022-12-04T22:36:59.802Z,101679.67
2022-12-04T22:39:33.639Z,101674.38
2022-12-04T22:42:05.458Z,101669.67
2022-12-04T22:44:37.140Z,101665.81
2022-12-04T22:47:08.962Z,101662.95
2022-12-04T22:49:40.650Z,101660.70
2022-12-04T22:52:12.223Z,101657.44
2022-12-04T22:54:43.833Z,101655.73
2022-12-04T22:57:15.650Z,101654.48
2022-12-04T22:59:47.524Z,101654.68
2022-12-04T23:02:19.301Z,101652.14
2022-12-04T23:04:51.029Z,101649.54
2022-12-04T23:07:23.044Z,101646.67
2022-12-04T23:09:54.752Z,101647.20
2022-12-04T23:12:27.980Z,101648.84
2022-12-04T23:14:59.643Z,101650.73
2022-12-04T23:17:31.432Z,101650.21
2022-12-04T23:20:03.103Z,101651.56
2022-12-04T23:22:34.704Z,101654.42
2022-12-04T23:25:07.262Z,101652.48
2022-12-04T23:27:39.038Z,101652.89
2022-12-04T23:30:11.751Z,101651.22
2022-12-04T23:32:43.568Z,101657.83
2022-12-04T23:35:15.429Z,101656.09
2022-12-04T23:37:47.219Z,101659.86
2022-12-04T23:40:19.069Z,101658.96
2022-12-04T23:42:50.793Z,101653.59
2022-12-04T23:45:22.574Z,101653.44
2022-12-04T23:47:55.916Z,101649.91
2022-12-04T23:50:27.606Z,101647.80
2022-12-04T23:52:59.458Z,101649.22
2022-12-04T23:55:34.375Z,101647.70
2022-12-04T23:58:06.572Z,101647.71
